Napoleon, Missouri
Current Conditions -  °F | °C
As of 7:35 AM on Friday 31 Oct 2014 (Local Time) from KGPH Reporting Station
Overcast Overcast  
Wind Chill: 26°   Ceiling: 3300
Heat Index: 36°   Visibility: 10mi
Dew Point: 27°   Wind: 15mph
Humidity: 70%   Direction: 340°NNW
Pressure: 30.41"   Gusts: NA
Location:  39.13°N, 94.07°W
Report Text: KGPH 311235Z AUTO 34013KT 10SM OVC033 02/M03 A3041 RMK AO2
Loading
Personal Weather Stations






























Interactive Weather Map
Tropical Storm Tracking
New forecast layout! Learn more

10-Day Weather Forecast

Advertisements
Track Severe Weather on mobile